sensor_id;sensor_type;location;lat;lon;timestamp;P1;durP1;ratioP1;P2;durP2;ratioP2
60060;SDS011;45933;51.336;12.612;2023-04-02T00:01:02;4.17;;;2.93;;
60060;SDS011;45933;51.336;12.612;2023-04-02T00:06:31;3.67;;;3.20;;
60060;SDS011;45933;51.336;12.612;2023-04-02T00:08:59;3.93;;;2.80;;
60060;SDS011;45933;51.336;12.612;2023-04-02T00:11:35;3.03;;;2.73;;
60060;SDS011;45933;51.336;12.612;2023-04-02T00:14:14;3.87;;;2.97;;
60060;SDS011;45933;51.336;12.612;2023-04-02T00:16:42;3.43;;;2.80;;
60060;SDS011;45933;51.336;12.612;2023-04-02T00:19:12;4.33;;;2.97;;
60060;SDS011;45933;51.336;12.612;2023-04-02T00:21:42;3.63;;;3.00;;
60060;SDS011;45933;51.336;12.612;2023-04-02T00:24:12;4.53;;;3.10;;
60060;SDS011;45933;51.336;12.612;2023-04-02T00:26:43;4.70;;;3.80;;
60060;SDS011;45933;51.336;12.612;2023-04-02T00:29:11;4.10;;;3.30;;
60060;SDS011;45933;51.336;12.612;2023-04-02T00:31:40;4.07;;;2.87;;
60060;SDS011;45933;51.336;12.612;2023-04-02T00:34:11;3.43;;;3.13;;
60060;SDS011;45933;51.336;12.612;2023-04-02T00:36:41;3.20;;;2.90;;
60060;SDS011;45933;51.336;12.612;2023-04-02T00:39:09;3.07;;;2.77;;
60060;SDS011;45933;51.336;12.612;2023-04-02T00:41:40;4.07;;;3.20;;
60060;SDS011;45933;51.336;12.612;2023-04-02T00:44:11;3.30;;;3.00;;
60060;SDS011;45933;51.336;12.612;2023-04-02T00:46:39;4.73;;;2.97;;
60060;SDS011;45933;51.336;12.612;2023-04-02T00:49:17;3.73;;;3.00;;
60060;SDS011;45933;51.336;12.612;2023-04-02T00:51:52;4.53;;;3.10;;
60060;SDS011;45933;51.336;12.612;2023-04-02T00:54:21;4.50;;;3.13;;
60060;SDS011;45933;51.336;12.612;2023-04-02T00:56:51;3.63;;;3.30;;
60060;SDS011;45933;51.336;12.612;2023-04-02T00:59:26;4.77;;;3.33;;
60060;SDS011;45933;51.336;12.612;2023-04-02T01:12:55;3.70;;;3.40;;
60060;SDS011;45933;51.336;12.612;2023-04-02T01:15:26;3.43;;;3.13;;
60060;SDS011;45933;51.336;12.612;2023-04-02T01:18:01;5.07;;;3.50;;
60060;SDS011;45933;51.336;12.612;2023-04-02T01:23:37;4.43;;;3.20;;
60060;SDS011;45933;51.336;12.612;2023-04-02T01:29:06;5.00;;;3.67;;
60060;SDS011;45933;51.336;12.612;2023-04-02T01:31:34;4.00;;;3.57;;
60060;SDS011;45933;51.336;12.612;2023-04-02T01:34:01;5.40;;;4.03;;
60060;SDS011;45933;51.336;12.612;2023-04-02T01:36:33;5.30;;;4.13;;
60060;SDS011;45933;51.336;12.612;2023-04-02T01:39:08;5.90;;;4.60;;
60060;SDS011;45933;51.336;12.612;2023-04-02T01:41:44;6.47;;;4.10;;
60060;SDS011;45933;51.336;12.612;2023-04-02T01:47:10;5.60;;;4.00;;
60060;SDS011;45933;51.336;12.612;2023-04-02T01:49:38;5.90;;;3.97;;
60060;SDS011;45933;51.336;12.612;2023-04-02T01:52:05;4.60;;;4.10;;
60060;SDS011;45933;51.336;12.612;2023-04-02T01:54:31;6.70;;;4.73;;
60060;SDS011;45933;51.336;12.612;2023-04-02T01:56:57;5.37;;;4.23;;
60060;SDS011;45933;51.336;12.612;2023-04-02T01:59:22;5.87;;;4.63;;
60060;SDS011;45933;51.336;12.612;2023-04-02T02:01:51;6.20;;;4.90;;
60060;SDS011;45933;51.336;12.612;2023-04-02T02:04:25;6.73;;;5.23;;
60060;SDS011;45933;51.336;12.612;2023-04-02T02:06:51;6.80;;;5.17;;
60060;SDS011;45933;51.336;12.612;2023-04-02T02:09:19;7.27;;;5.17;;
60060;SDS011;45933;51.336;12.612;2023-04-02T02:11:47;7.50;;;5.53;;
60060;SDS011;45933;51.336;12.612;2023-04-02T02:14:16;6.17;;;5.00;;
60060;SDS011;45933;51.336;12.612;2023-04-02T02:16:44;8.23;;;5.50;;
60060;SDS011;45933;51.336;12.612;2023-04-02T02:19:53;6.67;;;4.90;;
60060;SDS011;45933;51.336;12.612;2023-04-02T02:24:52;9.43;;;5.63;;
60060;SDS011;45933;51.336;12.612;2023-04-02T02:32:19;10.20;;;5.00;;
60060;SDS011;45933;51.336;12.612;2023-04-02T02:34:48;6.53;;;5.60;;
60060;SDS011;45933;51.336;12.612;2023-04-02T02:37:25;7.30;;;5.10;;
60060;SDS011;45933;51.336;12.612;2023-04-02T02:39:55;5.67;;;5.07;;
60060;SDS011;45933;51.336;12.612;2023-04-02T02:42:30;6.83;;;5.20;;
60060;SDS011;45933;51.336;12.612;2023-04-02T02:45:01;8.20;;;4.73;;
60060;SDS011;45933;51.336;12.612;2023-04-02T02:47:32;8.73;;;5.50;;
60060;SDS011;45933;51.336;12.612;2023-04-02T02:50:04;7.00;;;5.10;;
60060;SDS011;45933;51.336;12.612;2023-04-02T02:52:36;6.40;;;4.77;;
60060;SDS011;45933;51.336;12.612;2023-04-02T02:55:04;8.13;;;4.97;;
60060;SDS011;45933;51.336;12.612;2023-04-02T02:57:35;7.83;;;5.10;;
60060;SDS011;45933;51.336;12.612;2023-04-02T03:00:06;7.37;;;4.83;;
60060;SDS011;45933;51.336;12.612;2023-04-02T03:02:34;7.83;;;4.77;;
60060;SDS011;45933;51.336;12.612;2023-04-02T03:05:03;8.63;;;5.40;;
60060;SDS011;45933;51.336;12.612;2023-04-02T03:07:29;7.27;;;5.03;;
60060;SDS011;45933;51.336;12.612;2023-04-02T03:10:16;7.50;;;4.97;;
60060;SDS011;45933;51.336;12.612;2023-04-02T03:15:50;8.70;;;5.10;;
60060;SDS011;45933;51.336;12.612;2023-04-02T03:21:20;5.77;;;3.83;;
60060;SDS011;45933;51.336;12.612;2023-04-02T03:23:57;6.87;;;4.30;;
60060;SDS011;45933;51.336;12.612;2023-04-02T03:26:30;6.97;;;4.30;;
60060;SDS011;45933;51.336;12.612;2023-04-02T03:31:32;7.73;;;4.60;;
60060;SDS011;45933;51.336;12.612;2023-04-02T03:34:07;6.63;;;5.07;;
60060;SDS011;45933;51.336;12.612;2023-04-02T03:36:40;9.10;;;4.87;;
60060;SDS011;45933;51.336;12.612;2023-04-02T03:39:17;8.37;;;5.60;;
60060;SDS011;45933;51.336;12.612;2023-04-02T03:45:08;10.50;;;6.03;;
60060;SDS011;45933;51.336;12.612;2023-04-02T03:47:23;9.23;;;5.57;;
60060;SDS011;45933;51.336;12.612;2023-04-02T03:50:07;10.77;;;6.20;;
60060;SDS011;45933;51.336;12.612;2023-04-02T03:52:38;13.10;;;6.37;;
60060;SDS011;45933;51.336;12.612;2023-04-02T03:55:25;7.83;;;5.77;;
60060;SDS011;45933;51.336;12.612;2023-04-02T03:57:55;9.60;;;5.97;;
60060;SDS011;45933;51.336;12.612;2023-04-02T04:00:34;9.40;;;6.67;;
60060;SDS011;45933;51.336;12.612;2023-04-02T04:05:44;10.67;;;5.80;;
60060;SDS011;45933;51.336;12.612;2023-04-02T04:08:17;12.30;;;6.07;;
60060;SDS011;45933;51.336;12.612;2023-04-02T04:10:49;8.53;;;6.07;;
60060;SDS011;45933;51.336;12.612;2023-04-02T04:13:17;8.77;;;6.13;;
60060;SDS011;45933;51.336;12.612;2023-04-02T04:15:48;7.70;;;5.70;;
60060;SDS011;45933;51.336;12.612;2023-04-02T04:18:31;11.53;;;5.50;;
60060;SDS011;45933;51.336;12.612;2023-04-02T04:21:05;10.30;;;5.73;;
60060;SDS011;45933;51.336;12.612;2023-04-02T04:23:39;10.50;;;5.87;;
60060;SDS011;45933;51.336;12.612;2023-04-02T04:26:18;9.57;;;5.90;;
60060;SDS011;45933;51.336;12.612;2023-04-02T04:29:03;9.27;;;5.57;;
60060;SDS011;45933;51.336;12.612;2023-04-02T04:31:44;9.03;;;5.20;;
60060;SDS011;45933;51.336;12.612;2023-04-02T04:34:14;7.27;;;5.00;;
60060;SDS011;45933;51.336;12.612;2023-04-02T04:36:51;12.03;;;5.33;;
60060;SDS011;45933;51.336;12.612;2023-04-02T04:39:22;8.70;;;5.33;;
60060;SDS011;45933;51.336;12.612;2023-04-02T04:41:53;6.90;;;4.70;;
60060;SDS011;45933;51.336;12.612;2023-04-02T04:44:25;7.87;;;4.63;;
60060;SDS011;45933;51.336;12.612;2023-04-02T04:47:07;9.10;;;5.43;;
60060;SDS011;45933;51.336;12.612;2023-04-02T04:49:41;6.30;;;4.60;;
60060;SDS011;45933;51.336;12.612;2023-04-02T04:52:21;6.87;;;5.07;;
60060;SDS011;45933;51.336;12.612;2023-04-02T04:54:49;6.63;;;4.57;;
60060;SDS011;45933;51.336;12.612;2023-04-02T04:57:28;8.00;;;4.47;;
60060;SDS011;45933;51.336;12.612;2023-04-02T04:59:56;5.97;;;4.43;;
60060;SDS011;45933;51.336;12.612;2023-04-02T05:02:31;5.83;;;3.93;;
60060;SDS011;45933;51.336;12.612;2023-04-02T05:05:02;7.17;;;3.90;;
60060;SDS011;45933;51.336;12.612;2023-04-02T05:07:31;8.17;;;4.60;;
60060;SDS011;45933;51.336;12.612;2023-04-02T05:10:16;5.60;;;3.87;;
60060;SDS011;45933;51.336;12.612;2023-04-02T05:13:00;7.27;;;3.90;;
60060;SDS011;45933;51.336;12.612;2023-04-02T05:15:31;6.47;;;4.17;;
60060;SDS011;45933;51.336;12.612;2023-04-02T05:18:11;6.77;;;4.50;;
60060;SDS011;45933;51.336;12.612;2023-04-02T05:20:49;5.73;;;3.43;;
60060;SDS011;45933;51.336;12.612;2023-04-02T05:23:25;5.93;;;3.50;;
60060;SDS011;45933;51.336;12.612;2023-04-02T05:29:00;6.77;;;3.97;;
60060;SDS011;45933;51.336;12.612;2023-04-02T05:31:39;6.77;;;3.83;;
60060;SDS011;45933;51.336;12.612;2023-04-02T05:34:28;6.23;;;3.83;;
60060;SDS011;45933;51.336;12.612;2023-04-02T05:36:57;6.00;;;3.60;;
60060;SDS011;45933;51.336;12.612;2023-04-02T05:39:23;9.60;;;3.90;;
60060;SDS011;45933;51.336;12.612;2023-04-02T05:41:57;6.80;;;3.57;;
60060;SDS011;45933;51.336;12.612;2023-04-02T05:44:42;5.70;;;3.50;;
60060;SDS011;45933;51.336;12.612;2023-04-02T05:47:20;5.37;;;3.70;;
60060;SDS011;45933;51.336;12.612;2023-04-02T05:52:33;5.70;;;3.80;;
60060;SDS011;45933;51.336;12.612;2023-04-02T05:57:41;6.20;;;3.50;;
60060;SDS011;45933;51.336;12.612;2023-04-02T06:00:14;5.83;;;3.67;;
60060;SDS011;45933;51.336;12.612;2023-04-02T06:03:03;6.57;;;3.27;;
60060;SDS011;45933;51.336;12.612;2023-04-02T06:05:37;6.13;;;3.90;;
60060;SDS011;45933;51.336;12.612;2023-04-02T06:08:16;5.23;;;3.37;;
60060;SDS011;45933;51.336;12.612;2023-04-02T06:10:50;6.93;;;3.50;;
60060;SDS011;45933;51.336;12.612;2023-04-02T06:13:21;3.43;;;2.77;;
60060;SDS011;45933;51.336;12.612;2023-04-02T06:15:47;6.73;;;3.50;;
60060;SDS011;45933;51.336;12.612;2023-04-02T06:18:19;5.13;;;3.13;;
60060;SDS011;45933;51.336;12.612;2023-04-02T06:20:53;4.87;;;3.03;;
60060;SDS011;45933;51.336;12.612;2023-04-02T06:23:24;5.07;;;3.00;;
60060;SDS011;45933;51.336;12.612;2023-04-02T06:29:03;4.37;;;2.40;;
60060;SDS011;45933;51.336;12.612;2023-04-02T06:31:38;3.90;;;1.93;;
60060;SDS011;45933;51.336;12.612;2023-04-02T06:34:15;3.47;;;2.10;;
60060;SDS011;45933;51.336;12.612;2023-04-02T06:36:43;4.20;;;2.20;;
60060;SDS011;45933;51.336;12.612;2023-04-02T06:39:10;3.10;;;1.93;;
60060;SDS011;45933;51.336;12.612;2023-04-02T06:41:44;2.97;;;1.90;;
60060;SDS011;45933;51.336;12.612;2023-04-02T06:44:14;5.90;;;2.20;;
60060;SDS011;45933;51.336;12.612;2023-04-02T06:46:50;2.73;;;1.70;;
60060;SDS011;45933;51.336;12.612;2023-04-02T06:49:37;2.10;;;1.70;;
60060;SDS011;45933;51.336;12.612;2023-04-02T06:52:15;2.13;;;1.40;;
60060;SDS011;45933;51.336;12.612;2023-04-02T06:54:47;1.87;;;1.53;;
60060;SDS011;45933;51.336;12.612;2023-04-02T06:57:13;2.07;;;1.40;;
60060;SDS011;45933;51.336;12.612;2023-04-02T06:59:38;4.53;;;1.70;;
60060;SDS011;45933;51.336;12.612;2023-04-02T07:02:04;1.83;;;1.43;;
60060;SDS011;45933;51.336;12.612;2023-04-02T07:04:46;4.17;;;1.77;;
60060;SDS011;45933;51.336;12.612;2023-04-02T07:07:11;2.77;;;1.63;;
60060;SDS011;45933;51.336;12.612;2023-04-02T07:09:37;2.10;;;1.53;;
60060;SDS011;45933;51.336;12.612;2023-04-02T07:12:09;2.83;;;1.50;;
60060;SDS011;45933;51.336;12.612;2023-04-02T07:14:35;2.33;;;1.33;;
60060;SDS011;45933;51.336;12.612;2023-04-02T07:17:00;2.23;;;1.30;;
60060;SDS011;45933;51.336;12.612;2023-04-02T07:19:26;2.90;;;1.60;;
60060;SDS011;45933;51.336;12.612;2023-04-02T07:21:51;1.77;;;1.30;;
60060;SDS011;45933;51.336;12.612;2023-04-02T07:24:25;1.93;;;1.37;;
60060;SDS011;45933;51.336;12.612;2023-04-02T07:26:51;3.93;;;1.40;;
60060;SDS011;45933;51.336;12.612;2023-04-02T07:29:16;1.47;;;1.20;;
60060;SDS011;45933;51.336;12.612;2023-04-02T07:31:42;4.17;;;1.70;;
60060;SDS011;45933;51.336;12.612;2023-04-02T07:34:08;3.80;;;1.70;;
60060;SDS011;45933;51.336;12.612;2023-04-02T07:36:33;3.53;;;1.40;;
60060;SDS011;45933;51.336;12.612;2023-04-02T07:38:59;3.30;;;1.60;;
60060;SDS011;45933;51.336;12.612;2023-04-02T07:41:24;3.63;;;1.80;;
60060;SDS011;45933;51.336;12.612;2023-04-02T07:43:50;3.37;;;1.70;;
60060;SDS011;45933;51.336;12.612;2023-04-02T07:46:15;2.53;;;1.60;;
60060;SDS011;45933;51.336;12.612;2023-04-02T07:48:43;4.23;;;1.60;;
60060;SDS011;45933;51.336;12.612;2023-04-02T07:51:16;3.07;;;1.43;;
60060;SDS011;45933;51.336;12.612;2023-04-02T07:53:43;2.43;;;1.60;;
60060;SDS011;45933;51.336;12.612;2023-04-02T07:56:11;2.13;;;1.60;;
60060;SDS011;45933;51.336;12.612;2023-04-02T07:58:38;2.10;;;1.77;;
60060;SDS011;45933;51.336;12.612;2023-04-02T08:01:03;2.80;;;1.90;;
60060;SDS011;45933;51.336;12.612;2023-04-02T08:03:29;3.07;;;1.50;;
60060;SDS011;45933;51.336;12.612;2023-04-02T08:05:55;2.50;;;1.43;;
60060;SDS011;45933;51.336;12.612;2023-04-02T08:08:22;2.77;;;1.80;;
60060;SDS011;45933;51.336;12.612;2023-04-02T08:10:48;1.93;;;1.20;;
60060;SDS011;45933;51.336;12.612;2023-04-02T08:13:14;2.70;;;1.93;;
60060;SDS011;45933;51.336;12.612;2023-04-02T08:15:41;2.70;;;1.30;;
60060;SDS011;45933;51.336;12.612;2023-04-02T08:18:07;3.77;;;1.60;;
60060;SDS011;45933;51.336;12.612;2023-04-02T08:20:32;2.93;;;1.80;;
60060;SDS011;45933;51.336;12.612;2023-04-02T08:22:58;2.87;;;1.53;;
60060;SDS011;45933;51.336;12.612;2023-04-02T08:25:25;3.33;;;1.80;;
60060;SDS011;45933;51.336;12.612;2023-04-02T08:27:51;3.23;;;1.60;;
60060;SDS011;45933;51.336;12.612;2023-04-02T08:30:16;4.57;;;2.77;;
60060;SDS011;45933;51.336;12.612;2023-04-02T08:32:42;10.10;;;4.70;;
60060;SDS011;45933;51.336;12.612;2023-04-02T08:35:08;4.27;;;1.90;;
60060;SDS011;45933;51.336;12.612;2023-04-02T08:37:35;1.57;;;1.40;;
60060;SDS011;45933;51.336;12.612;2023-04-02T08:40:00;2.33;;;1.60;;
60060;SDS011;45933;51.336;12.612;2023-04-02T08:42:33;3.33;;;1.73;;
60060;SDS011;45933;51.336;12.612;2023-04-02T08:45:22;6.33;;;1.60;;
60060;SDS011;45933;51.336;12.612;2023-04-02T08:48:01;2.87;;;1.63;;
60060;SDS011;45933;51.336;12.612;2023-04-02T08:50:30;2.63;;;1.47;;
60060;SDS011;45933;51.336;12.612;2023-04-02T08:52:59;2.83;;;1.57;;
60060;SDS011;45933;51.336;12.612;2023-04-02T08:55:30;3.47;;;1.50;;
60060;SDS011;45933;51.336;12.612;2023-04-02T08:58:12;2.47;;;1.53;;
60060;SDS011;45933;51.336;12.612;2023-04-02T09:00:42;2.23;;;1.50;;
60060;SDS011;45933;51.336;12.612;2023-04-02T09:03:13;3.83;;;1.40;;
60060;SDS011;45933;51.336;12.612;2023-04-02T09:05:42;3.93;;;1.70;;
60060;SDS011;45933;51.336;12.612;2023-04-02T09:08:22;4.73;;;1.70;;
60060;SDS011;45933;51.336;12.612;2023-04-02T09:10:52;4.37;;;1.70;;
60060;SDS011;45933;51.336;12.612;2023-04-02T09:13:28;4.17;;;1.63;;
60060;SDS011;45933;51.336;12.612;2023-04-02T09:16:06;3.77;;;1.90;;
60060;SDS011;45933;51.336;12.612;2023-04-02T09:18:35;4.53;;;1.60;;
60060;SDS011;45933;51.336;12.612;2023-04-02T09:21:17;4.00;;;1.80;;
60060;SDS011;45933;51.336;12.612;2023-04-02T09:23:46;4.13;;;2.07;;
60060;SDS011;45933;51.336;12.612;2023-04-02T09:26:19;3.30;;;1.60;;
60060;SDS011;45933;51.336;12.612;2023-04-02T09:28:48;3.03;;;1.70;;
60060;SDS011;45933;51.336;12.612;2023-04-02T09:31:44;2.93;;;1.60;;
60060;SDS011;45933;51.336;12.612;2023-04-02T09:34:27;5.03;;;1.80;;
60060;SDS011;45933;51.336;12.612;2023-04-02T09:37:05;2.77;;;1.63;;
60060;SDS011;45933;51.336;12.612;2023-04-02T09:39:41;5.50;;;1.60;;
60060;SDS011;45933;51.336;12.612;2023-04-02T09:42:10;5.53;;;1.87;;
60060;SDS011;45933;51.336;12.612;2023-04-02T09:45:04;5.93;;;2.13;;
60060;SDS011;45933;51.336;12.612;2023-04-02T09:47:37;4.37;;;1.73;;
60060;SDS011;45933;51.336;12.612;2023-04-02T09:52:50;3.67;;;1.80;;
60060;SDS011;45933;51.336;12.612;2023-04-02T09:55:17;4.73;;;1.77;;
60060;SDS011;45933;51.336;12.612;2023-04-02T09:58:11;4.20;;;1.90;;
60060;SDS011;45933;51.336;12.612;2023-04-02T10:00:38;3.37;;;2.00;;
60060;SDS011;45933;51.336;12.612;2023-04-02T10:06:05;4.43;;;2.30;;
60060;SDS011;45933;51.336;12.612;2023-04-02T10:08:38;4.50;;;2.50;;
60060;SDS011;45933;51.336;12.612;2023-04-02T10:11:07;6.77;;;1.90;;
60060;SDS011;45933;51.336;12.612;2023-04-02T10:16:11;2.97;;;1.57;;
60060;SDS011;45933;51.336;12.612;2023-04-02T10:18:59;3.37;;;1.50;;
60060;SDS011;45933;51.336;12.612;2023-04-02T10:21:31;5.70;;;2.60;;
60060;SDS011;45933;51.336;12.612;2023-04-02T10:23:59;5.03;;;2.70;;
60060;SDS011;45933;51.336;12.612;2023-04-02T10:29:14;4.87;;;2.30;;
60060;SDS011;45933;51.336;12.612;2023-04-02T10:32:13;6.00;;;2.33;;
60060;SDS011;45933;51.336;12.612;2023-04-02T10:40:13;4.13;;;1.90;;
60060;SDS011;45933;51.336;12.612;2023-04-02T10:42:51;4.70;;;1.97;;
60060;SDS011;45933;51.336;12.612;2023-04-02T10:48:11;3.27;;;1.77;;
60060;SDS011;45933;51.336;12.612;2023-04-02T10:51:02;6.23;;;3.30;;
60060;SDS011;45933;51.336;12.612;2023-04-02T10:53:40;5.77;;;2.20;;
60060;SDS011;45933;51.336;12.612;2023-04-02T10:56:26;3.30;;;2.03;;
60060;SDS011;45933;51.336;12.612;2023-04-02T10:58:57;3.77;;;2.47;;
60060;SDS011;45933;51.336;12.612;2023-04-02T11:01:27;5.80;;;2.40;;
60060;SDS011;45933;51.336;12.612;2023-04-02T11:03:56;4.43;;;2.20;;
60060;SDS011;45933;51.336;12.612;2023-04-02T11:06:25;4.03;;;2.33;;
60060;SDS011;45933;51.336;12.612;2023-04-02T11:08:57;5.63;;;2.47;;
60060;SDS011;45933;51.336;12.612;2023-04-02T11:11:31;4.00;;;1.97;;
60060;SDS011;45933;51.336;12.612;2023-04-02T11:14:19;5.27;;;2.70;;
60060;SDS011;45933;51.336;12.612;2023-04-02T11:16:56;3.83;;;2.67;;
60060;SDS011;45933;51.336;12.612;2023-04-02T11:19:26;2.33;;;1.77;;
60060;SDS011;45933;51.336;12.612;2023-04-02T11:21:54;3.90;;;1.80;;
60060;SDS011;45933;51.336;12.612;2023-04-02T11:27:02;2.80;;;1.57;;
60060;SDS011;45933;51.336;12.612;2023-04-02T11:29:35;3.67;;;1.70;;
60060;SDS011;45933;51.336;12.612;2023-04-02T11:40:44;4.17;;;1.60;;
60060;SDS011;45933;51.336;12.612;2023-04-02T11:48:41;2.90;;;1.60;;
60060;SDS011;45933;51.336;12.612;2023-04-02T11:53:44;2.50;;;1.50;;
60060;SDS011;45933;51.336;12.612;2023-04-02T11:56:16;3.50;;;1.50;;
60060;SDS011;45933;51.336;12.612;2023-04-02T12:09:28;3.97;;;1.47;;
60060;SDS011;45933;51.336;12.612;2023-04-02T12:12:24;6.30;;;1.50;;
60060;SDS011;45933;51.336;12.612;2023-04-02T12:14:52;2.23;;;1.40;;
60060;SDS011;45933;51.336;12.612;2023-04-02T12:17:27;2.30;;;1.17;;
60060;SDS011;45933;51.336;12.612;2023-04-02T12:20:16;2.43;;;1.20;;
60060;SDS011;45933;51.336;12.612;2023-04-02T12:22:51;3.33;;;1.40;;
60060;SDS011;45933;51.336;12.612;2023-04-02T12:25:22;2.40;;;1.27;;
60060;SDS011;45933;51.336;12.612;2023-04-02T12:30:34;2.60;;;1.50;;
60060;SDS011;45933;51.336;12.612;2023-04-02T12:33:24;3.33;;;1.43;;
60060;SDS011;45933;51.336;12.612;2023-04-02T12:35:54;3.00;;;1.23;;
60060;SDS011;45933;51.336;12.612;2023-04-02T12:38:26;2.40;;;1.10;;
60060;SDS011;45933;51.336;12.612;2023-04-02T12:40:55;3.50;;;1.30;;
60060;SDS011;45933;51.336;12.612;2023-04-02T12:43:27;2.77;;;1.10;;
60060;SDS011;45933;51.336;12.612;2023-04-02T12:45:55;2.47;;;1.20;;
60060;SDS011;45933;51.336;12.612;2023-04-02T12:48:23;4.13;;;1.20;;
60060;SDS011;45933;51.336;12.612;2023-04-02T12:50:49;2.83;;;1.33;;
60060;SDS011;45933;51.336;12.612;2023-04-02T12:53:23;4.07;;;1.10;;
60060;SDS011;45933;51.336;12.612;2023-04-02T12:55:52;3.33;;;1.20;;
60060;SDS011;45933;51.336;12.612;2023-04-02T12:58:32;2.73;;;1.27;;
60060;SDS011;45933;51.336;12.612;2023-04-02T13:01:14;4.30;;;1.23;;
60060;SDS011;45933;51.336;12.612;2023-04-02T13:06:36;2.47;;;1.20;;
60060;SDS011;45933;51.336;12.612;2023-04-02T13:09:06;1.87;;;1.30;;
60060;SDS011;45933;51.336;12.612;2023-04-02T13:11:53;2.30;;;1.30;;
60060;SDS011;45933;51.336;12.612;2023-04-02T13:14:19;3.10;;;1.20;;
60060;SDS011;45933;51.336;12.612;2023-04-02T13:16:47;3.03;;;1.63;;
60060;SDS011;45933;51.336;12.612;2023-04-02T13:21:41;6.43;;;2.40;;
60060;SDS011;45933;51.336;12.612;2023-04-02T13:24:14;5.53;;;2.67;;
60060;SDS011;45933;51.336;12.612;2023-04-02T13:26:41;5.90;;;2.97;;
60060;SDS011;45933;51.336;12.612;2023-04-02T13:29:21;3.17;;;2.10;;
60060;SDS011;45933;51.336;12.612;2023-04-02T13:31:49;2.40;;;1.40;;
60060;SDS011;45933;51.336;12.612;2023-04-02T13:34:15;2.70;;;1.47;;
60060;SDS011;45933;51.336;12.612;2023-04-02T13:36:42;4.20;;;1.60;;
60060;SDS011;45933;51.336;12.612;2023-04-02T13:39:07;6.10;;;1.50;;
60060;SDS011;45933;51.336;12.612;2023-04-02T13:41:35;3.27;;;1.40;;
60060;SDS011;45933;51.336;12.612;2023-04-02T13:44:06;3.73;;;1.47;;
60060;SDS011;45933;51.336;12.612;2023-04-02T13:46:37;5.33;;;1.57;;
60060;SDS011;45933;51.336;12.612;2023-04-02T13:49:02;6.07;;;1.57;;
60060;SDS011;45933;51.336;12.612;2023-04-02T13:51:44;3.90;;;1.60;;
60060;SDS011;45933;51.336;12.612;2023-04-02T13:57:07;3.33;;;1.77;;
60060;SDS011;45933;51.336;12.612;2023-04-02T13:59:32;2.00;;;1.20;;
60060;SDS011;45933;51.336;12.612;2023-04-02T14:01:59;2.67;;;1.50;;
60060;SDS011;45933;51.336;12.612;2023-04-02T14:04:32;2.77;;;1.47;;
60060;SDS011;45933;51.336;12.612;2023-04-02T14:07:10;2.10;;;1.40;;
60060;SDS011;45933;51.336;12.612;2023-04-02T14:18:03;3.00;;;1.97;;
60060;SDS011;45933;51.336;12.612;2023-04-02T14:20:53;5.07;;;2.67;;
60060;SDS011;45933;51.336;12.612;2023-04-02T14:23:44;3.17;;;1.93;;
60060;SDS011;45933;51.336;12.612;2023-04-02T14:29:14;2.40;;;1.77;;
60060;SDS011;45933;51.336;12.612;2023-04-02T14:35:10;3.00;;;1.63;;
60060;SDS011;45933;51.336;12.612;2023-04-02T14:38:16;5.37;;;1.70;;
60060;SDS011;45933;51.336;12.612;2023-04-02T14:40:56;2.97;;;1.80;;
60060;SDS011;45933;51.336;12.612;2023-04-02T14:43:32;3.83;;;2.90;;
60060;SDS011;45933;51.336;12.612;2023-04-02T14:46:05;4.27;;;2.17;;
60060;SDS011;45933;51.336;12.612;2023-04-02T14:53:58;4.33;;;2.37;;
60060;SDS011;45933;51.336;12.612;2023-04-02T14:56:49;4.43;;;1.90;;
60060;SDS011;45933;51.336;12.612;2023-04-02T15:04:54;4.67;;;2.80;;
60060;SDS011;45933;51.336;12.612;2023-04-02T15:07:25;4.13;;;2.63;;
60060;SDS011;45933;51.336;12.612;2023-04-02T15:10:03;2.77;;;2.00;;
60060;SDS011;45933;51.336;12.612;2023-04-02T15:12:35;3.50;;;2.27;;
60060;SDS011;45933;51.336;12.612;2023-04-02T15:17:52;3.87;;;2.57;;
60060;SDS011;45933;51.336;12.612;2023-04-02T15:20:18;3.20;;;1.93;;
60060;SDS011;45933;51.336;12.612;2023-04-02T15:25:54;3.27;;;1.57;;
60060;SDS011;45933;51.336;12.612;2023-04-02T15:28:45;5.00;;;2.47;;
60060;SDS011;45933;51.336;12.612;2023-04-02T15:31:15;3.20;;;2.30;;
60060;SDS011;45933;51.336;12.612;2023-04-02T15:38:57;6.73;;;2.47;;
60060;SDS011;45933;51.336;12.612;2023-04-02T15:41:37;4.37;;;2.07;;
60060;SDS011;45933;51.336;12.612;2023-04-02T15:44:13;2.60;;;1.87;;
60060;SDS011;45933;51.336;12.612;2023-04-02T15:49:45;2.80;;;2.00;;
60060;SDS011;45933;51.336;12.612;2023-04-02T15:52:37;3.97;;;1.70;;
60060;SDS011;45933;51.336;12.612;2023-04-02T15:55:21;2.17;;;1.40;;
60060;SDS011;45933;51.336;12.612;2023-04-02T15:58:00;6.20;;;1.80;;
60060;SDS011;45933;51.336;12.612;2023-04-02T16:00:41;2.80;;;1.60;;
60060;SDS011;45933;51.336;12.612;2023-04-02T16:08:45;4.23;;;1.90;;
60060;SDS011;45933;51.336;12.612;2023-04-02T16:11:21;5.70;;;2.10;;
60060;SDS011;45933;51.336;12.612;2023-04-02T16:13:47;2.70;;;1.63;;
60060;SDS011;45933;51.336;12.612;2023-04-02T16:16:31;3.57;;;1.67;;
60060;SDS011;45933;51.336;12.612;2023-04-02T16:19:10;5.10;;;1.80;;
60060;SDS011;45933;51.336;12.612;2023-04-02T16:21:42;2.93;;;1.70;;
60060;SDS011;45933;51.336;12.612;2023-04-02T16:24:13;5.43;;;2.47;;
60060;SDS011;45933;51.336;12.612;2023-04-02T16:29:54;5.13;;;2.00;;
60060;SDS011;45933;51.336;12.612;2023-04-02T16:35:23;6.23;;;2.37;;
60060;SDS011;45933;51.336;12.612;2023-04-02T16:40:50;4.77;;;1.77;;
60060;SDS011;45933;51.336;12.612;2023-04-02T16:48:49;17.27;;;10.57;;
60060;SDS011;45933;51.336;12.612;2023-04-02T16:51:29;6.17;;;4.07;;
60060;SDS011;45933;51.336;12.612;2023-04-02T16:54:10;5.80;;;4.10;;
60060;SDS011;45933;51.336;12.612;2023-04-02T16:59:51;9.03;;;4.83;;
60060;SDS011;45933;51.336;12.612;2023-04-02T17:07:42;11.80;;;7.17;;
60060;SDS011;45933;51.336;12.612;2023-04-02T17:13:01;6.20;;;4.53;;
60060;SDS011;45933;51.336;12.612;2023-04-02T17:16:30;5.50;;;4.20;;
60060;SDS011;45933;51.336;12.612;2023-04-02T17:18:36;4.27;;;3.03;;
60060;SDS011;45933;51.336;12.612;2023-04-02T17:21:04;6.53;;;2.90;;
60060;SDS011;45933;51.336;12.612;2023-04-02T17:23:33;3.70;;;2.40;;
60060;SDS011;45933;51.336;12.612;2023-04-02T17:26:15;5.10;;;3.60;;
60060;SDS011;45933;51.336;12.612;2023-04-02T17:28:43;5.67;;;4.07;;
60060;SDS011;45933;51.336;12.612;2023-04-02T17:31:12;22.67;;;17.70;;
60060;SDS011;45933;51.336;12.612;2023-04-02T17:33:45;15.60;;;10.33;;
60060;SDS011;45933;51.336;12.612;2023-04-02T17:36:14;6.93;;;5.50;;
60060;SDS011;45933;51.336;12.612;2023-04-02T17:41:18;6.53;;;4.87;;
60060;SDS011;45933;51.336;12.612;2023-04-02T17:43:57;8.50;;;5.80;;
60060;SDS011;45933;51.336;12.612;2023-04-02T17:49:24;7.77;;;6.00;;
60060;SDS011;45933;51.336;12.612;2023-04-02T17:55:04;6.50;;;5.10;;
60060;SDS011;45933;51.336;12.612;2023-04-02T17:57:44;8.90;;;7.20;;
60060;SDS011;45933;51.336;12.612;2023-04-02T18:03:30;5.13;;;3.57;;
60060;SDS011;45933;51.336;12.612;2023-04-02T18:06:13;7.37;;;4.10;;
60060;SDS011;45933;51.336;12.612;2023-04-02T18:14:27;7.27;;;3.97;;
60060;SDS011;45933;51.336;12.612;2023-04-02T18:16:58;5.37;;;2.60;;
60060;SDS011;45933;51.336;12.612;2023-04-02T18:23:10;5.37;;;3.10;;
60060;SDS011;45933;51.336;12.612;2023-04-02T18:25:45;5.67;;;3.10;;
60060;SDS011;45933;51.336;12.612;2023-04-02T18:34:25;8.67;;;3.17;;
60060;SDS011;45933;51.336;12.612;2023-04-02T18:37:11;5.17;;;3.53;;
60060;SDS011;45933;51.336;12.612;2023-04-02T18:42:40;5.57;;;3.27;;
60060;SDS011;45933;51.336;12.612;2023-04-02T18:45:13;7.97;;;3.67;;